San Antonio, TX (78221)

12:01 PM CST on December 21, 2014 (GMT -0600)
Former Lone Star Brewery | Change Station
CLOSE
Current Station
Personal Weather Station
Location: San Antonio, TX
Elevation: 625 ft
Nearby Weather Stations

Elev 625 ft 29.40 °N, 98.49 °W | Updated 51 seconds ago

Overcast
Overcast
54.0 °F
Feels Like 54.0 °F
N
2.0
Wind Variable Wind from WSW
Gusts 2.0 mph

Today
High -- | Low -- °F
--% Chance of Precip.
Yesterday
High -- | Low -- °F
Precip. -- in
7:24 AM 5:40 PM
Waning Crescent, 0% visible
Pressure 30.06 in
Visibility 3.0 miles
Clouds Overcast 900 ft
Dew Point 52 °F
Humidity 92%
Rainfall 0.00 in
Snow Depth Not available.
UV 1 out of 12
Pollen 9.60 out of 12
Air Quality Not available.
Flu Activity Not available.
METAR KSSF 211753Z 23005KT 3SM BR OVC009 12/11 A3006 RMK AO2 CIG 006V013 SLP179 60000 T01170106 10122 20106 58014

More Conditions Fewer Conditions

Pressure 30.06 in
Visibility 3.0 miles
Clouds Overcast 900 ft
Dew Point 52 °F
Humidity 92%
Rainfall 0.00 in
Snow Depth Not available.
UV 1 out of 12
Pollen 9.60 out of 12
Air Quality Not available.
Flu Activity Not available.
METAR KSSF 211753Z 23005KT 3SM BR OVC009 12/11 A3006 RMK AO2 CIG 006V013 SLP179 60000 T01170106 10122 20106 58014

More Conditions Fewer Conditions

10-Day Weather Forecast

Almanac

Astronomy

Dec. 21, 2014 Rise Set
Actual Time
Civil Twilight
Nautical Twilight
Astronomical Twilight
Moon
Length of Visible Light
Length of Day
Tomorrow will be .
, % of the Moon is Illuminated

Today's Extremes

State Highs State Lows

Community

WunderPhotos

Upload Photos

1,779,438 photos uploaded!

WunderBlogs® & News

Nearby

Air Quality

  Air Quality AQ Index Pollutant
Not available.

Snow Depth

Station Depth Elevation

Earthquake Activity

City Distance Mag. Time & Date
Minimum magnitude displayed is 2.5.

Coastal Water Temperatures

Place Temperature

Nearby Weather Stations